Time;durP1;ratioP1;P1;durP2;ratioP2;P2;SDS_P1;SDS_P2;PMS_P1;PMS_P2;Temp;Humidity;BMP_temperature;BMP_pressure;BME280_temperature;BME280_humidity;BME280_pressure;Samples;Min_cycle;Max_cycle;Signal;HPM_P1;HPM_P2
2021/06/13 00:00:18;;;;;;;11.10;5.93;;;16.50;10.50;;;;;;4997541;28;20178;-84
2021/06/13 00:02:45;;;;;;;10.00;5.77;;;16.50;5.10;;;;;;4998416;28;20215;-83
2021/06/13 00:05:15;;;;;;;7.63;5.60;;;16.60;8.80;;;;;;4997246;28;20178;-84
2021/06/13 00:07:41;;;;;;;9.97;5.63;;;16.50;6.10;;;;;;5011623;28;20208;-85
2021/06/13 00:10:08;;;;;;;8.07;5.60;;;16.60;9.60;;;;;;4995821;28;20197;-85
2021/06/13 00:12:34;;;;;;;7.43;5.67;;;16.50;1.00;;;;;;4997321;28;20254;-83
2021/06/13 00:15:00;;;;;;;9.60;5.73;;;16.50;5.40;;;;;;4995816;28;20187;-83
2021/06/13 00:17:25;;;;;;;7.63;5.63;;;16.60;1.00;;;;;;4996416;28;20280;-84
2021/06/13 00:19:51;;;;;;;9.00;5.10;;;16.60;1.00;;;;;;4994235;28;20204;-84
2021/06/13 00:22:17;;;;;;;9.43;5.07;;;16.40;1.00;;;;;;4978224;28;20650;-84
2021/06/13 00:24:42;;;;;;;8.07;5.03;;;16.50;1.00;;;;;;4976659;28;20175;-85
2021/06/13 00:27:08;;;;;;;7.80;5.10;;;16.40;1.00;;;;;;4977817;28;20176;-84
2021/06/13 00:29:35;;;;;;;8.63;4.47;;;16.30;1.00;;;;;;4975944;28;20179;-84
2021/06/13 00:32:00;;;;;;;10.00;5.10;;;16.40;1.00;;;;;;4976591;28;20626;-84
2021/06/13 00:34:26;;;;;;;9.27;4.93;;;16.40;1.00;;;;;;4977539;28;20180;-84
2021/06/13 00:36:52;;;;;;;8.30;4.83;;;16.40;1.00;;;;;;4977690;28;20672;-85
2021/06/13 00:39:18;;;;;;;8.47;4.93;;;16.40;1.00;;;;;;4975976;28;20647;-84
2021/06/13 00:41:43;;;;;;;6.97;4.70;;;16.40;1.00;;;;;;4977351;28;20183;-83
2021/06/13 00:44:09;;;;;;;5.50;4.20;;;16.50;1.00;;;;;;4976849;28;20176;-84
2021/06/13 00:46:35;;;;;;;10.17;5.17;;;16.50;1.00;;;;;;4977294;28;20187;-84
2021/06/13 00:49:01;;;;;;;8.47;4.80;;;16.50;1.00;;;;;;4975790;28;20684;-85
2021/06/13 00:51:27;;;;;;;9.53;5.20;;;16.60;1.00;;;;;;4976652;28;20183;-84
2021/06/13 00:53:53;;;;;;;9.30;4.90;;;16.50;1.00;;;;;;4976903;28;20168;-84
2021/06/13 00:56:19;;;;;;;7.57;5.00;;;16.50;1.00;;;;;;4975949;28;20203;-84
2021/06/13 00:58:45;;;;;;;9.53;4.90;;;16.40;1.00;;;;;;4991936;28;20611;-84
2021/06/13 01:01:12;;;;;;;8.57;4.97;;;16.60;1.00;;;;;;4979066;28;20199;-84
2021/06/13 01:03:38;;;;;;;11.40;4.83;;;16.60;1.00;;;;;;4988360;28;20628;-84
2021/06/13 01:06:04;;;;;;;10.13;5.37;;;16.60;1.00;;;;;;4979077;28;20269;-84
2021/06/13 01:08:48;;;;;;;9.07;4.83;;;16.40;1.00;;;;;;4978206;28;20242;-85
2021/06/13 01:11:34;;;;;;;7.20;5.03;;;16.30;1.00;;;;;;4986616;28;20180;-85
2021/06/13 01:14:12;;;;;;;8.40;4.87;;;16.20;1.00;;;;;;4992382;28;20178;-84
2021/06/13 01:16:57;;;;;;;10.30;4.63;;;16.20;1.00;;;;;;4976801;28;20670;-84
2021/06/13 01:19:28;;;;;;;10.80;4.77;;;16.30;1.00;;;;;;4975912;28;20187;-84
2021/06/13 01:22:08;;;;;;;7.33;4.57;;;16.20;1.00;;;;;;4994553;28;20582;-84
2021/06/13 01:25:02;;;;;;;7.03;4.63;;;16.20;1.00;;;;;;4997393;28;20178;-84
2021/06/13 01:27:43;;;;;;;8.80;4.50;;;16.30;1.00;;;;;;4995585;28;20272;-84
2021/06/13 01:30:10;;;;;;;6.07;4.10;;;16.30;1.00;;;;;;4995301;28;20175;-84
2021/06/13 01:32:37;;;;;;;5.87;4.10;;;16.20;1.00;;;;;;4997211;28;20182;-83
2021/06/13 01:35:07;;;;;;;8.67;4.30;;;16.10;1.00;;;;;;4996990;28;20174;-84
2021/06/13 01:37:37;;;;;;;8.30;4.40;;;16.00;1.00;;;;;;4999076;28;20217;-84
2021/06/13 01:40:10;;;;;;;9.40;4.10;;;16.10;1.00;;;;;;5001390;28;20175;-84
2021/06/13 01:42:38;;;;;;;6.77;4.10;;;16.00;1.00;;;;;;4998111;28;20175;-85
2021/06/13 01:45:08;;;;;;;6.97;4.30;;;16.00;1.00;;;;;;4995550;28;20174;-84
2021/06/13 01:47:35;;;;;;;9.37;4.67;;;16.00;1.00;;;;;;4995910;28;20180;-84
2021/06/13 01:50:03;;;;;;;9.90;4.80;;;16.10;1.00;;;;;;4994910;28;20186;-84
2021/06/13 01:52:33;;;;;;;9.57;4.50;;;16.00;1.00;;;;;;4995751;28;20195;-84
2021/06/13 01:54:59;;;;;;;8.43;4.40;;;15.90;1.00;;;;;;4993946;28;20653;-84
2021/06/13 01:57:27;;;;;;;9.07;5.00;;;15.90;1.00;;;;;;4995800;28;20214;-84
2021/06/13 01:59:58;;;;;;;7.83;4.83;;;15.90;1.00;;;;;;4999353;28;20190;-83
2021/06/13 02:02:25;;;;;;;8.43;4.37;;;15.90;1.00;;;;;;5011105;28;20222;-83
2021/06/13 02:04:51;;;;;;;8.80;4.90;;;15.90;1.00;;;;;;5013213;28;20171;-82
2021/06/13 02:07:19;;;;;;;9.07;4.40;;;15.90;1.00;;;;;;5006015;28;20558;-82
2021/06/13 02:09:47;;;;;;;6.90;4.60;;;16.00;1.00;;;;;;4995531;28;20181;-83
2021/06/13 02:12:14;;;;;;;9.00;4.47;;;16.00;1.00;;;;;;4995640;28;20200;-83
2021/06/13 02:14:43;;;;;;;6.93;4.27;;;16.10;1.00;;;;;;4994916;28;20206;-83
2021/06/13 02:17:10;;;;;;;11.57;4.40;;;16.10;1.00;;;;;;4995122;28;20202;-83
2021/06/13 02:19:38;;;;;;;9.13;4.33;;;16.00;1.00;;;;;;4994516;28;20278;-83
2021/06/13 02:22:06;;;;;;;6.77;4.77;;;16.00;1.00;;;;;;4994699;28;20187;-84
2021/06/13 02:24:36;;;;;;;9.27;4.33;;;16.10;1.00;;;;;;4996883;28;20635;-84
2021/06/13 02:27:04;;;;;;;9.03;4.53;;;16.00;1.00;;;;;;5013324;28;20169;-83
2021/06/13 02:29:32;;;;;;;8.43;4.57;;;16.00;1.00;;;;;;5030687;28;20174;-82
2021/06/13 02:31:59;;;;;;;9.30;4.67;;;15.90;1.00;;;;;;4995694;28;20184;-84
2021/06/13 02:34:28;;;;;;;10.63;4.77;;;16.10;1.00;;;;;;4995081;28;20250;-83
2021/06/13 02:36:56;;;;;;;7.57;4.27;;;16.00;1.00;;;;;;4993272;28;20232;-84
2021/06/13 02:39:22;;;;;;;10.30;5.37;;;16.10;1.00;;;;;;4992898;28;20192;-84
2021/06/13 02:41:49;;;;;;;9.67;5.43;;;16.10;1.00;;;;;;4994454;28;20179;-84
2021/06/13 02:44:16;;;;;;;10.27;5.00;;;16.00;1.00;;;;;;4993836;28;20213;-83
2021/06/13 02:46:42;;;;;;;8.43;5.27;;;16.00;1.00;;;;;;4993896;28;20178;-83
2021/06/13 02:49:09;;;;;;;8.20;5.43;;;16.10;1.00;;;;;;4992865;28;20178;-83
2021/06/13 02:51:41;;;;;;;7.27;5.70;;;16.20;1.00;;;;;;4994449;28;20181;-84
2021/06/13 02:54:10;;;;;;;8.60;5.20;;;16.10;1.00;;;;;;4993857;28;20221;-83
2021/06/13 02:56:48;;;;;;;9.63;5.80;;;16.20;1.00;;;;;;4993834;28;20553;-83
2021/06/13 02:59:36;;;;;;;9.87;5.83;;;16.30;1.00;;;;;;4994056;28;20237;-84
2021/06/13 03:02:07;;;;;;;8.90;5.60;;;16.30;1.00;;;;;;4993540;28;20167;-84
2021/06/13 03:04:33;;;;;;;8.57;5.07;;;16.20;1.00;;;;;;4992315;28;20577;-84
2021/06/13 03:06:59;;;;;;;10.97;4.60;;;16.30;1.00;;;;;;4994247;28;20511;-84
2021/06/13 03:09:29;;;;;;;8.33;5.20;;;16.00;1.00;;;;;;4992538;28;20602;-84
2021/06/13 03:11:56;;;;;;;9.80;4.83;;;15.80;1.00;;;;;;4992475;28;20198;-84
2021/06/13 03:14:23;;;;;;;7.93;5.00;;;15.80;1.00;;;;;;4993781;28;20171;-84
2021/06/13 03:16:50;;;;;;;6.93;4.80;;;15.90;1.00;;;;;;4996393;28;20210;-84
2021/06/13 03:19:17;;;;;;;9.53;5.00;;;16.00;1.00;;;;;;4997414;28;20673;-84
2021/06/13 03:21:48;;;;;;;9.93;4.80;;;16.00;1.00;;;;;;4979656;28;20625;-84
2021/06/13 03:24:15;;;;;;;6.97;4.80;;;16.00;1.00;;;;;;4978569;28;20172;-84
2021/06/13 03:26:42;;;;;;;7.43;4.50;;;16.10;1.00;;;;;;4978454;28;20167;-84
2021/06/13 03:29:09;;;;;;;8.10;4.70;;;15.80;1.00;;;;;;4977029;28;20247;-84
2021/06/13 03:31:36;;;;;;;8.53;4.47;;;15.90;1.00;;;;;;4977164;28;20210;-84
2021/06/13 03:34:03;;;;;;;7.63;4.67;;;16.00;1.00;;;;;;4976291;28;20174;-84
2021/06/13 03:36:30;;;;;;;9.87;5.20;;;16.00;1.00;;;;;;4976868;28;20179;-84
2021/06/13 03:38:57;;;;;;;9.57;5.87;;;15.80;1.00;;;;;;4977954;28;20164;-84
2021/06/13 03:41:24;;;;;;;10.63;5.47;;;15.70;1.00;;;;;;4976596;28;20183;-84
2021/06/13 03:43:51;;;;;;;9.40;5.27;;;15.70;1.00;;;;;;4978120;28;20181;-83
2021/06/13 03:46:18;;;;;;;9.50;5.17;;;15.90;1.00;;;;;;4977978;28;20174;-83
2021/06/13 03:48:45;;;;;;;9.20;5.90;;;15.80;1.00;;;;;;4977555;28;20667;-83
2021/06/13 03:51:17;;;;;;;6.77;4.77;;;15.90;1.00;;;;;;4976748;28;20603;-83
2021/06/13 03:53:47;;;;;;;11.77;4.83;;;15.70;1.00;;;;;;4977600;28;20766;-83
2021/06/13 03:56:23;;;;;;;9.20;5.30;;;15.60;1.00;;;;;;4978151;28;20183;-83
2021/06/13 03:58:50;;;;;;;10.13;5.23;;;15.70;1.00;;;;;;4976395;28;20210;-84
2021/06/13 04:01:20;;;;;;;10.90;5.27;;;15.60;1.00;;;;;;4979288;28;20183;-84
2021/06/13 04:03:49;;;;;;;11.13;5.40;;;15.60;1.00;;;;;;4981398;28;20203;-82
2021/06/13 04:06:15;;;;;;;11.73;5.20;;;15.60;1.00;;;;;;4976982;28;20178;-84
2021/06/13 04:08:43;;;;;;;8.87;4.93;;;15.60;1.00;;;;;;4977852;28;20174;-83
2021/06/13 04:11:13;;;;;;;6.73;4.83;;;15.70;1.00;;;;;;4977432;28;20210;-83
2021/06/13 04:13:40;;;;;;;8.27;5.13;;;15.50;1.00;;;;;;4977481;28;20172;-83
2021/06/13 04:16:10;;;;;;;11.50;6.17;;;15.50;1.00;;;;;;4977960;28;20212;-83
2021/06/13 04:18:38;;;;;;;11.70;6.07;;;15.50;1.00;;;;;;4976880;28;20626;-83
2021/06/13 04:21:09;;;;;;;9.93;5.73;;;15.50;1.00;;;;;;4990508;28;20197;-83
2021/06/13 04:23:35;;;;;;;9.70;5.87;;;15.50;1.00;;;;;;4998655;28;20631;-83
2021/06/13 04:26:02;;;;;;;9.90;6.03;;;15.60;1.00;;;;;;4997531;28;20521;-83
2021/06/13 04:28:29;;;;;;;12.37;6.20;;;15.60;1.00;;;;;;4995412;28;20191;-83
2021/06/13 04:31:05;;;;;;;15.57;7.13;;;15.60;1.00;;;;;;4995462;28;20307;-83
2021/06/13 04:33:32;;;;;;;10.10;6.43;;;15.70;1.00;;;;;;4995286;28;20182;-83
2021/06/13 04:36:01;;;;;;;9.87;6.90;;;15.80;1.00;;;;;;4997153;28;20756;-83
2021/06/13 04:38:27;;;;;;;12.30;6.90;;;15.80;1.00;;;;;;4995684;28;20627;-83
2021/06/13 04:40:53;;;;;;;10.77;6.70;;;15.90;1.00;;;;;;4997209;28;20187;-84
2021/06/13 04:43:25;;;;;;;9.50;6.77;;;15.90;1.00;;;;;;4997361;28;20171;-82
2021/06/13 04:45:55;;;;;;;8.53;6.30;;;15.90;1.00;;;;;;4996777;28;20539;-83
2021/06/13 04:48:20;;;;;;;9.20;6.60;;;15.90;1.00;;;;;;4996034;28;20170;-83
2021/06/13 04:50:47;;;;;;;9.07;5.93;;;15.90;1.00;;;;;;4997141;28;20178;-83
2021/06/13 04:53:49;;;;;;;9.17;6.43;;;15.90;1.00;;;;;;4998324;28;20163;-83
2021/06/13 04:56:39;;;;;;;9.00;5.97;;;15.80;1.00;;;;;;5009127;28;20191;-83
2021/06/13 04:59:14;;;;;;;11.53;6.67;;;15.90;1.00;;;;;;5001993;28;20282;-83
2021/06/13 05:01:47;;;;;;;8.60;5.37;;;15.90;1.00;;;;;;5007355;28;20196;-83
2021/06/13 05:04:38;;;;;;;9.60;5.17;;;15.90;1.00;;;;;;5012669;28;20169;-83
2021/06/13 05:07:08;;;;;;;12.00;5.60;;;15.90;1.00;;;;;;4995930;28;20588;-83
2021/06/13 05:09:34;;;;;;;8.97;5.70;;;15.80;1.00;;;;;;4996981;28;20174;-83
2021/06/13 05:12:00;;;;;;;9.90;5.73;;;15.90;1.00;;;;;;4995663;28;20178;-83
2021/06/13 05:14:25;;;;;;;8.13;5.17;;;15.90;1.00;;;;;;4995336;28;20234;-83
2021/06/13 05:16:52;;;;;;;11.77;5.30;;;16.00;1.00;;;;;;5000296;28;20217;-83
2021/06/13 05:19:17;;;;;;;11.70;6.07;;;16.00;1.00;;;;;;5010559;28;20191;-85
2021/06/13 05:21:46;;;;;;;10.83;5.73;;;16.10;1.00;;;;;;4989847;28;20199;-84
2021/06/13 05:24:12;;;;;;;9.63;5.50;;;16.10;1.00;;;;;;4989342;28;20180;-82
2021/06/13 05:26:45;;;;;;;8.67;5.67;;;16.20;1.00;;;;;;4980055;28;20183;-83
2021/06/13 05:29:11;;;;;;;9.90;5.33;;;16.20;1.00;;;;;;4976109;28;20234;-84
2021/06/13 05:31:39;;;;;;;12.20;6.00;;;16.10;1.00;;;;;;4978843;28;20178;-83
2021/06/13 05:34:07;;;;;;;7.80;6.10;;;16.20;1.00;;;;;;4977157;28;20178;-83
2021/06/13 05:36:33;;;;;;;10.90;6.33;;;16.10;1.00;;;;;;4976590;28;20175;-84
2021/06/13 05:38:59;;;;;;;8.63;5.67;;;16.30;1.00;;;;;;4977154;28;20628;-83
2021/06/13 05:41:25;;;;;;;10.60;5.63;;;16.30;1.00;;;;;;4978899;28;20191;-83
2021/06/13 05:43:50;;;;;;;12.03;6.10;;;16.40;1.00;;;;;;4976690;28;20163;-84
2021/06/13 05:46:19;;;;;;;11.57;6.53;;;16.50;1.00;;;;;;4975645;28;20537;-83
2021/06/13 05:48:50;;;;;;;10.17;5.90;;;16.50;1.00;;;;;;4976088;28;20179;-84
2021/06/13 05:51:23;;;;;;;11.57;5.83;;;16.60;1.00;;;;;;4975359;28;20215;-84
2021/06/13 05:54:08;;;;;;;10.50;5.90;;;16.80;1.00;;;;;;4975822;28;20179;-83
2021/06/13 05:56:38;;;;;;;10.27;5.70;;;16.70;1.00;;;;;;4976260;28;20192;-84
2021/06/13 05:59:04;;;;;;;14.27;6.37;;;16.80;1.00;;;;;;4976826;28;20242;-83
2021/06/13 06:01:30;;;;;;;10.10;5.67;;;16.70;1.00;;;;;;4975834;28;20172;-84
2021/06/13 06:04:01;;;;;;;11.20;5.63;;;16.70;1.00;;;;;;4977166;28;20180;-84
2021/06/13 06:06:26;;;;;;;10.13;6.13;;;16.50;1.00;;;;;;4976349;28;20175;-83
2021/06/13 06:08:52;;;;;;;11.40;5.40;;;16.20;1.00;;;;;;4979761;28;20584;-83
2021/06/13 06:11:18;;;;;;;12.83;6.47;;;16.10;1.00;;;;;;4980146;28;20617;-83
2021/06/13 06:13:44;;;;;;;11.10;5.27;;;16.20;1.00;;;;;;4996725;28;20202;-84
2021/06/13 06:16:11;;;;;;;12.20;6.00;;;16.30;1.00;;;;;;4978410;28;20178;-83
2021/06/13 06:18:40;;;;;;;12.00;5.83;;;16.20;1.00;;;;;;4981143;28;20208;-83
2021/06/13 06:21:05;;;;;;;11.97;6.53;;;16.20;1.00;;;;;;4994940;28;20221;-83
2021/06/13 06:23:34;;;;;;;10.17;5.80;;;16.20;1.00;;;;;;4994693;28;20624;-83
2021/06/13 06:26:00;;;;;;;11.17;6.67;;;16.20;1.00;;;;;;4994415;28;20155;-83
2021/06/13 06:28:28;;;;;;;13.10;6.70;;;16.10;1.00;;;;;;4994419;28;20198;-85
2021/06/13 06:31:03;;;;;;;11.10;5.53;;;16.30;1.00;;;;;;4995484;28;20677;-83
2021/06/13 06:33:31;;;;;;;11.23;6.37;;;16.60;1.00;;;;;;4995276;28;20227;-83
2021/06/13 06:35:58;;;;;;;12.17;6.33;;;16.40;1.00;;;;;;4995054;28;20179;-83
2021/06/13 06:38:24;;;;;;;10.80;6.23;;;16.50;1.00;;;;;;4996832;28;20722;-83
2021/06/13 06:40:50;;;;;;;13.00;6.60;;;16.60;1.00;;;;;;4996397;28;20171;-84
2021/06/13 06:43:17;;;;;;;10.80;6.70;;;16.80;1.00;;;;;;4995465;28;20609;-84
2021/06/13 06:45:46;;;;;;;16.40;6.60;;;16.80;1.00;;;;;;4995675;28;20216;-85
2021/06/13 06:48:13;;;;;;;12.17;7.10;;;16.80;1.00;;;;;;4995644;28;20250;-83
2021/06/13 06:50:39;;;;;;;13.10;6.67;;;16.90;1.00;;;;;;4994008;28;20179;-83
2021/06/13 06:53:04;;;;;;;10.90;6.83;;;16.90;1.00;;;;;;4996318;28;20175;-83
2021/06/13 06:55:41;;;;;;;9.77;7.27;;;17.00;1.00;;;;;;4994775;28;20648;-84
2021/06/13 06:58:21;;;;;;;10.53;6.10;;;17.10;1.00;;;;;;4995718;28;20297;-83
2021/06/13 07:00:49;;;;;;;15.93;6.70;;;17.30;1.00;;;;;;4996895;28;20645;-83
2021/06/13 07:03:15;;;;;;;12.40;6.10;;;17.30;1.00;;;;;;4996571;28;20197;-85
2021/06/13 07:05:41;;;;;;;11.07;5.73;;;17.20;1.00;;;;;;4993579;28;20170;-83
2021/06/13 07:08:07;;;;;;;9.90;6.10;;;17.20;1.00;;;;;;5008390;28;20194;-84
2021/06/13 07:10:33;;;;;;;11.40;6.67;;;17.20;1.00;;;;;;4978160;28;20176;-85
2021/06/13 07:12:59;;;;;;;8.33;4.37;;;17.30;1.00;;;;;;4998448;28;20620;-85
2021/06/13 07:15:25;;;;;;;9.33;4.60;;;17.30;1.00;;;;;;4991434;28;20179;-84
2021/06/13 07:17:53;;;;;;;9.57;5.03;;;17.50;1.00;;;;;;4991376;28;20226;-83
2021/06/13 07:20:22;;;;;;;9.93;5.47;;;17.60;1.00;;;;;;4994496;28;20259;-84
2021/06/13 07:22:48;;;;;;;7.60;5.00;;;17.60;1.00;;;;;;4989481;28;20703;-83
2021/06/13 07:25:14;;;;;;;9.10;4.67;;;17.50;1.00;;;;;;4984792;28;20201;-83
2021/06/13 07:27:41;;;;;;;10.20;4.43;;;17.70;1.00;;;;;;4983148;28;20199;-83
2021/06/13 07:30:10;;;;;;;8.13;4.17;;;17.70;1.00;;;;;;4985812;28;20182;-84
2021/06/13 07:32:36;;;;;;;8.73;4.40;;;17.60;1.00;;;;;;4994200;28;20262;-83
2021/06/13 07:35:04;;;;;;;8.37;4.47;;;17.70;1.00;;;;;;4997478;28;20200;-83
2021/06/13 07:37:30;;;;;;;9.70;4.50;;;17.80;1.00;;;;;;4984402;28;20203;-83
2021/06/13 07:39:55;;;;;;;8.47;4.73;;;17.90;1.00;;;;;;4998655;28;20239;-86
2021/06/13 07:42:21;;;;;;;6.60;4.20;;;17.90;1.00;;;;;;4991294;28;20189;-83
2021/06/13 07:44:50;;;;;;;10.90;6.30;;;18.00;99.90;;;;;;4995771;28;20186;-87
2021/06/13 07:47:22;;;;;;;8.17;3.83;;;18.10;99.90;;;;;;4997272;28;20811;-84
2021/06/13 07:49:48;;;;;;;12.40;4.03;;;18.00;99.90;;;;;;4994965;28;20175;-83
2021/06/13 07:52:14;;;;;;;7.53;4.47;;;18.20;99.90;;;;;;4994738;28;20606;-82
2021/06/13 07:54:40;;;;;;;9.27;4.00;;;18.50;99.90;;;;;;4995517;28;20179;-83
2021/06/13 07:57:09;;;;;;;6.70;3.40;;;18.50;99.90;;;;;;4998785;28;20203;-83
2021/06/13 07:59:36;;;;;;;8.83;4.00;;;18.60;99.90;;;;;;5008777;28;20184;-82
2021/06/13 08:02:04;;;;;;;9.63;5.10;;;18.50;99.90;;;;;;4997132;28;20171;-84
2021/06/13 08:04:38;;;;;;;9.73;4.93;;;18.40;1.00;;;;;;4996491;28;20566;-84
2021/06/13 08:07:06;;;;;;;11.67;4.40;;;18.50;1.00;;;;;;4996151;28;20285;-87
2021/06/13 08:09:32;;;;;;;6.77;3.87;;;18.40;99.90;;;;;;4997654;28;20175;-88
2021/06/13 08:11:57;;;;;;;6.77;3.90;;;18.50;1.00;;;;;;4996458;28;20193;-84
2021/06/13 08:14:23;;;;;;;7.37;3.90;;;18.60;33.50;;;;;;4999791;28;20171;-88
2021/06/13 08:16:49;;;;;;;6.97;3.47;;;18.60;99.90;;;;;;5000461;28;20175;-85
2021/06/13 08:19:14;;;;;;;8.80;4.03;;;18.60;1.00;;;;;;5012509;28;20257;-86
2021/06/13 08:21:43;;;;;;;7.63;3.87;;;18.50;99.90;;;;;;5005476;28;20175;-85
2021/06/13 08:24:09;;;;;;;9.77;4.03;;;18.50;99.90;;;;;;4996316;28;20183;-85
2021/06/13 08:26:38;;;;;;;7.53;3.30;;;18.40;1.00;;;;;;4998767;28;20175;-88
2021/06/13 08:29:05;;;;;;;8.90;3.63;;;18.30;30.60;;;;;;5013298;28;20198;-86
2021/06/13 08:31:32;;;;;;;7.40;3.53;;;18.40;1.00;;;;;;4998124;28;20234;-85
2021/06/13 08:33:58;;;;;;;7.23;3.07;;;18.50;99.90;;;;;;4996836;28;20171;-87
2021/06/13 08:36:24;;;;;;;7.30;3.60;;;18.70;1.00;;;;;;4997877;28;20175;-85
2021/06/13 08:38:55;;;;;;;7.17;3.00;;;18.80;99.90;;;;;;4999615;28;20220;-85
2021/06/13 08:41:21;;;;;;;7.80;3.30;;;18.70;1.00;;;;;;4995831;28;20662;-88
2021/06/13 08:43:48;;;;;;;6.20;3.13;;;18.70;1.00;;;;;;5014083;28;20673;-86
2021/06/13 08:46:14;;;;;;;9.37;3.57;;;18.80;1.00;;;;;;5016877;28;20162;-85
2021/06/13 08:48:44;;;;;;;10.13;3.60;;;19.00;1.00;;;;;;5015360;28;20171;-85
2021/06/13 08:51:10;;;;;;;6.37;2.97;;;19.10;99.90;;;;;;5016500;28;20190;-84
2021/06/13 08:53:43;;;;;;;6.37;3.50;;;19.30;99.90;;;;;;5016351;28;20174;-84
2021/06/13 08:56:10;;;;;;;6.73;3.40;;;19.10;99.90;;;;;;5016716;28;20178;-84
2021/06/13 08:58:36;;;;;;;8.23;3.40;;;19.20;99.90;;;;;;5015960;28;20252;-83
2021/06/13 09:01:03;;;;;;;7.43;3.53;;;19.40;36.70;;;;;;5017961;28;20171;-84
2021/06/13 09:03:30;;;;;;;7.67;3.37;;;19.70;1.00;;;;;;5004937;28;20186;-83
2021/06/13 09:05:56;;;;;;;6.10;3.50;;;19.50;1.00;;;;;;4999062;28;20171;-84
2021/06/13 09:08:31;;;;;;;6.80;3.33;;;19.80;1.00;;;;;;4995373;28;20265;-84
2021/06/13 09:10:58;;;;;;;6.80;3.43;;;19.80;1.00;;;;;;4996998;28;20183;-84
2021/06/13 09:13:25;;;;;;;6.27;3.20;;;19.80;1.00;;;;;;4995548;28;20206;-82
2021/06/13 09:15:53;;;;;;;8.67;3.47;;;19.70;99.90;;;;;;4996779;28;20171;-83
2021/06/13 09:18:38;;;;;;;8.10;3.40;;;19.80;99.90;;;;;;4995917;28;20333;-83
2021/06/13 09:21:09;;;;;;;6.43;3.57;;;19.80;1.00;;;;;;4995441;28;20179;-83
2021/06/13 09:23:35;;;;;;;6.10;3.40;;;19.80;1.00;;;;;;4995778;28;20186;-85
2021/06/13 09:26:10;;;;;;;5.80;3.63;;;19.90;1.00;;;;;;4994828;28;20934;-82
2021/06/13 09:28:39;;;;;;;7.97;2.87;;;19.90;99.90;;;;;;4995275;28;20282;-82
2021/06/13 09:31:06;;;;;;;5.43;2.70;;;19.80;99.90;;;;;;4996591;28;20190;-82
2021/06/13 09:33:36;;;;;;;5.43;3.10;;;19.70;1.00;;;;;;4995452;28;20203;-82
2021/06/13 09:36:05;;;;;;;7.07;3.20;;;19.70;99.90;;;;;;4994812;28;20258;-83
2021/06/13 09:38:44;;;;;;;8.47;3.30;;;19.90;99.90;;;;;;4995872;28;20564;-81
2021/06/13 09:41:12;;;;;;;7.93;3.17;;;20.10;1.00;;;;;;4995953;28;20183;-83
2021/06/13 09:43:42;;;;;;;5.13;2.53;;;20.10;99.90;;;;;;4996605;28;20559;-81
2021/06/13 09:46:19;;;;;;;5.93;3.00;;;20.20;99.90;;;;;;4993802;28;20171;-82
2021/06/13 09:48:49;;;;;;;7.23;3.23;;;20.20;99.90;;;;;;4994566;28;20206;-81
2021/06/13 09:51:20;;;;;;;6.50;3.13;;;20.10;22.50;;;;;;4995439;28;20655;-82
2021/06/13 09:53:55;;;;;;;7.40;2.70;;;20.20;1.00;;;;;;4996464;28;20171;-81
2021/06/13 09:56:25;;;;;;;7.13;3.20;;;20.30;1.00;;;;;;4995328;28;20187;-81
2021/06/13 09:58:55;;;;;;;5.60;2.70;;;20.30;1.00;;;;;;4994445;28;20230;-81
2021/06/13 10:01:25;;;;;;;7.60;3.10;;;20.30;1.00;;;;;;4995892;28;20198;-84
2021/06/13 10:03:50;;;;;;;5.10;3.03;;;20.40;99.90;;;;;;4994562;28;20171;-83
2021/06/13 10:06:19;;;;;;;7.67;3.10;;;20.40;99.90;;;;;;4992751;28;20627;-82
2021/06/13 10:08:46;;;;;;;6.03;2.80;;;20.40;1.00;;;;;;4994298;28;20191;-82
2021/06/13 10:11:18;;;;;;;6.20;2.80;;;20.30;1.00;;;;;;4992332;28;20611;-83
2021/06/13 10:13:54;;;;;;;6.17;3.13;;;20.40;99.90;;;;;;4995490;28;20179;-83
2021/06/13 10:16:26;;;;;;;7.90;2.77;;;20.60;99.90;;;;;;4990888;28;20183;-81
2021/06/13 10:18:55;;;;;;;6.13;2.90;;;20.60;99.90;;;;;;4986360;28;20239;-81
2021/06/13 10:21:24;;;;;;;7.40;3.40;;;20.70;99.90;;;;;;4984209;28;20321;-82
2021/06/13 10:23:50;;;;;;;4.90;2.80;;;20.60;99.90;;;;;;4998872;28;20172;-84
2021/06/13 10:26:16;;;;;;;6.33;2.80;;;20.60;1.00;;;;;;4990086;28;20633;-80
2021/06/13 10:28:42;;;;;;;7.67;3.53;;;20.60;99.90;;;;;;4981505;28;20219;-82
2021/06/13 10:31:07;;;;;;;6.90;3.03;;;20.60;1.00;;;;;;4996613;28;20639;-85
2021/06/13 10:33:34;;;;;;;6.23;3.10;;;20.70;1.00;;;;;;4990544;28;20645;-83
2021/06/13 10:36:01;;;;;;;7.77;3.30;;;20.60;1.00;;;;;;4993740;28;20177;-82
2021/06/13 10:38:29;;;;;;;9.10;3.63;;;20.60;99.90;;;;;;4993609;28;20207;-83
2021/06/13 10:40:58;;;;;;;8.00;4.63;;;20.70;99.90;;;;;;4993181;28;20221;-79
2021/06/13 10:43:27;;;;;;;9.17;3.20;;;20.70;99.90;;;;;;4993684;28;20183;-82
2021/06/13 10:46:02;;;;;;;5.77;2.97;;;20.80;99.90;;;;;;4995142;28;20640;-81
2021/06/13 10:48:47;;;;;;;5.87;3.03;;;20.80;99.90;;;;;;4996025;28;20168;-80
2021/06/13 10:51:45;;;;;;;9.13;3.50;;;20.70;1.00;;;;;;5022784;28;20197;-84
2021/06/13 10:54:24;;;;;;;6.77;3.30;;;20.80;99.90;;;;;;5023276;28;20303;-83
2021/06/13 10:57:04;;;;;;;6.60;3.77;;;20.80;1.00;;;;;;4989955;28;20290;-81
2021/06/13 10:59:37;;;;;;;5.53;3.03;;;21.00;1.00;;;;;;4997352;28;20275;-81
2021/06/13 11:02:11;;;;;;;6.43;2.97;;;21.10;1.00;;;;;;4995355;28;20480;-81
2021/06/13 11:05:02;;;;;;;5.60;3.10;;;21.20;1.00;;;;;;4995159;28;20192;-81
2021/06/13 11:07:34;;;;;;;6.50;2.83;;;21.20;1.00;;;;;;4997217;28;20173;-79
2021/06/13 11:10:16;;;;;;;7.53;2.93;;;21.30;39.10;;;;;;5001500;28;20180;-80
2021/06/13 11:12:59;;;;;;;5.77;2.80;;;21.50;99.90;;;;;;5008704;28;20205;-81
2021/06/13 11:15:31;;;;;;;8.30;3.03;;;21.40;99.90;;;;;;5011923;28;20231;-80
2021/06/13 11:18:02;;;;;;;5.53;2.90;;;21.30;99.90;;;;;;4997979;28;20266;-79
2021/06/13 11:20:29;;;;;;;6.80;2.80;;;21.40;99.90;;;;;;4998185;28;20172;-82
2021/06/13 11:22:56;;;;;;;6.43;2.73;;;21.40;99.90;;;;;;4997589;28;20602;-80
2021/06/13 11:25:26;;;;;;;7.53;2.80;;;21.30;99.90;;;;;;4997643;28;20237;-81
2021/06/13 11:28:16;;;;;;;6.13;3.00;;;21.50;99.90;;;;;;4993720;28;20192;-81
2021/06/13 11:30:52;;;;;;;8.17;3.00;;;21.60;99.90;;;;;;4995224;28;20642;-81
2021/06/13 11:33:41;;;;;;;6.77;3.17;;;21.50;1.00;;;;;;4993446;28;20232;-79
2021/06/13 11:36:16;;;;;;;8.10;3.20;;;21.60;1.00;;;;;;4996904;28;20574;-81
2021/06/13 11:38:43;;;;;;;5.10;2.70;;;21.80;1.00;;;;;;4998937;28;20216;-80
2021/06/13 11:41:26;;;;;;;7.30;3.27;;;21.60;1.00;;;;;;4997602;28;20200;-82
2021/06/13 11:43:53;;;;;;;6.50;2.93;;;21.50;1.00;;;;;;4998611;28;20231;-81
2021/06/13 11:46:35;;;;;;;6.77;3.40;;;21.70;99.90;;;;;;5001193;28;20182;-79
2021/06/13 11:49:03;;;;;;;6.03;3.20;;;21.80;99.90;;;;;;5003538;28;20177;-80
2021/06/13 11:51:30;;;;;;;7.03;3.13;;;21.70;99.90;;;;;;5019036;28;20172;-79
2021/06/13 11:54:03;;;;;;;7.23;3.70;;;21.90;99.90;;;;;;5000314;28;20274;-81
2021/06/13 11:56:35;;;;;;;6.87;3.00;;;21.80;48.70;;;;;;5016806;28;20207;-82
2021/06/13 11:59:08;;;;;;;6.47;2.90;;;21.80;1.00;;;;;;5016771;28;20223;-82
2021/06/13 12:01:36;;;;;;;8.87;3.60;;;21.90;1.00;;;;;;5017299;28;20177;-82
2021/06/13 12:04:10;;;;;;;7.83;3.90;;;22.00;99.90;;;;;;5017502;28;20181;-80
2021/06/13 12:06:37;;;;;;;7.03;2.80;;;22.30;99.90;;;;;;5016843;28;20174;-80
2021/06/13 12:09:08;;;;;;;5.73;2.97;;;22.40;99.90;;;;;;5018639;28;20282;-80
2021/06/13 12:11:38;;;;;;;6.33;2.67;;;22.10;99.90;;;;;;5005413;28;20256;-80
2021/06/13 12:14:37;;;;;;;5.47;2.70;;;22.00;99.90;;;;;;4997767;28;20254;-81
2021/06/13 12:17:15;;;;;;;6.77;2.87;;;22.20;99.90;;;;;;5002012;28;20190;-80
2021/06/13 12:19:55;;;;;;;4.47;2.90;;;22.10;99.90;;;;;;5000442;28;20169;-82
2021/06/13 12:28:04;;;;;;;6.40;2.80;;;22.10;99.90;;;;;;4998439;28;20680;-81
2021/06/13 12:30:30;;;;;;;5.13;2.90;;;22.30;99.90;;;;;;4998486;28;20174;-81
2021/06/13 12:32:58;;;;;;;6.63;2.70;;;22.30;61.90;;;;;;4996840;28;20175;-82
2021/06/13 12:35:27;;;;;;;4.27;2.33;;;22.30;1.00;;;;;;4998562;28;20264;-81
2021/06/13 12:38:08;;;;;;;5.03;3.03;;;22.20;1.00;;;;;;4997145;28;20220;-79
2021/06/13 12:40:47;;;;;;;4.70;2.30;;;22.30;1.00;;;;;;4998189;28;20212;-81
2021/06/13 12:43:14;;;;;;;7.00;2.40;;;22.60;1.00;;;;;;5003205;28;20254;-81
2021/06/13 12:45:42;;;;;;;4.33;2.20;;;22.50;99.90;;;;;;5000908;28;20199;-81
2021/06/13 12:48:11;;;;;;;6.73;2.80;;;22.80;99.90;;;;;;4996970;28;20179;-80
2021/06/13 12:50:43;;;;;;;6.57;3.03;;;22.80;99.90;;;;;;4996689;28;20167;-80
2021/06/13 12:53:14;;;;;;;8.67;3.43;;;22.70;1.00;;;;;;4998867;28;20171;-80
2021/06/13 12:55:44;;;;;;;5.07;3.00;;;22.70;1.00;;;;;;4998213;28;20187;-80
2021/06/13 12:58:17;;;;;;;5.53;3.23;;;22.70;1.00;;;;;;4997287;28;20195;-82
2021/06/13 13:00:44;;;;;;;7.20;3.27;;;22.90;1.00;;;;;;4996090;28;20174;-81
2021/06/13 13:03:18;;;;;;;8.43;3.30;;;22.90;1.00;;;;;;4994748;28;20171;-80
2021/06/13 13:05:59;;;;;;;7.27;3.40;;;22.80;1.00;;;;;;4997547;28;20174;-81
2021/06/13 13:08:24;;;;;;;8.00;3.60;;;22.90;59.60;;;;;;4997090;28;20167;-81
2021/06/13 13:11:02;;;;;;;5.10;2.90;;;23.00;32.70;;;;;;4996290;28;20250;-81